Temp: 6.1°C   Baro: 1032.4mb
  Wind: 2.9mph   Dir: ENE (58°)
  Rain: 0.0mm (0.0mm/hr)
  Solar: 0W/m2  Hum: 79%
 
Bath Spa Weather Historical Data
Daily Summary for October 22, 2019 Units:  Metric    English   Both
Next Day »
Daily Weekly Monthly Yearly Custom
  High: Low: Average:
Temperature: 15.6 °C 5.2 °C 10 °C
Dew Point: 9.6 °C 4.1 °C 7.2 °C
Humidity: 94% 62% 84%
Wind Speed: 17.7km/h 0.0km/h 1.2km/h
Wind Gust: 17.7km/h - -
Wind direction- - WSW
Pressure: 1024.3 hPa 1017.2 hPa -
Precipitation: 0.0 mm    
Historical Graphs
 
 
Tabular Data for October 22, 2019
Time Temperature Dew Point Pressure Wind direction Wind Speed Wind Gust Humidity Rainfall Rate (Hourly) solar
00:00 7.9 °C 6.7 °C 1022.9 hPa NNW 1.4 km/h 3.2 km/h 92% 0.0 mm 0.00 W/m2
00:05 7.9 °C 6.8 °C 1022.9 hPa NNW 1.4 km/h 4.8 km/h 93% 0.0 mm 0.00 W/m2
00:10 7.9 °C 6.8 °C 1022.9 hPa Calm     93% 0.0 mm 0.00 W/m2
00:15 7.9 °C 6.8 °C 1022.9 hPa Calm   1.6 km/h 93% 0.0 mm 0.00 W/m2
00:20 7.9 °C 6.8 °C 1022.9 hPa Calm     93% 0.0 mm 0.00 W/m2
00:25 7.9 °C 6.8 °C 1022.9 hPa Calm   1.6 km/h 93% 0.0 mm 0.00 W/m2
00:30 7.9 °C 6.8 °C 1022.9 hPa Calm     93% 0.0 mm 0.00 W/m2
00:35 7.9 °C 6.8 °C 1022.9 hPa Calm     93% 0.0 mm 0.00 W/m2
00:40 7.9 °C 6.8 °C 1022.9 hPa Calm     93% 0.0 mm 0.00 W/m2
00:45 7.9 °C 6.8 °C 1023.2 hPa Calm     93% 0.0 mm 0.00 W/m2
00:50 7.8 °C 6.7 °C 1022.9 hPa Calm     93% 0.0 mm 0.00 W/m2
00:55 7.8 °C 6.7 °C 1023.2 hPa Calm     93% 0.0 mm 0.00 W/m2
01:00 7.8 °C 6.7 °C 1022.9 hPa Calm     93% 0.0 mm 0.00 W/m2
01:05 7.8 °C 6.7 °C 1022.9 hPa Calm     93% 0.0 mm 0.00 W/m2
01:10 7.8 °C 6.7 °C 1022.9 hPa Calm     93% 0.0 mm 0.00 W/m2
01:15 7.8 °C 6.7 °C 1023.2 hPa Calm     93% 0.0 mm 0.00 W/m2
01:20 7.8 °C 6.7 °C 1023.2 hPa Calm     93% 0.0 mm 0.00 W/m2
01:25 7.9 °C 6.8 °C 1023.2 hPa Calm     93% 0.0 mm 0.00 W/m2
01:30 7.9 °C 6.8 °C 1023.2 hPa Calm     93% 0.0 mm 0.00 W/m2
01:35 7.9 °C 6.8 °C 1023.2 hPa Calm     93% 0.0 mm 0.00 W/m2
01:40 7.9 °C 6.8 °C 1023.2 hPa Calm     93% 0.0 mm 0.00 W/m2
01:45 7.9 °C 6.8 °C 1023.2 hPa Calm     93% 0.0 mm 0.00 W/m2
01:50 7.9 °C 6.8 °C 1023.2 hPa Calm     93% 0.0 mm 0.00 W/m2
01:55 7.8 °C 6.7 °C 1023.2 hPa Calm     93% 0.0 mm 0.00 W/m2
02:00 7.9 °C 6.8 °C 1023.2 hPa Calm     93% 0.0 mm 0.00 W/m2
02:05 7.9 °C 6.8 °C 1023.2 hPa Calm     93% 0.0 mm 0.00 W/m2
02:10 7.9 °C 6.8 °C 1023.2 hPa Calm   1.6 km/h 93% 0.0 mm 0.00 W/m2
02:15 7.9 °C 6.8 °C 1023.2 hPa Calm     93% 0.0 mm 0.00 W/m2
02:20 7.9 °C 6.8 °C 1023.2 hPa Calm     93% 0.0 mm 0.00 W/m2
02:25 7.9 °C 6.8 °C 1023.2 hPa Calm     93% 0.0 mm 0.00 W/m2
02:30 7.9 °C 6.8 °C 1023.2 hPa Calm     93% 0.0 mm 0.00 W/m2
02:35 7.9 °C 6.8 °C 1023.2 hPa Calm     93% 0.0 mm 0.00 W/m2
02:40 7.9 °C 6.8 °C 1023.2 hPa Calm     93% 0.0 mm 0.00 W/m2
02:45 8.0 °C 6.9 °C 1023.2 hPa Calm     93% 0.0 mm 0.00 W/m2
02:50 8.0 °C 7.1 °C 1023.2 hPa Calm     94% 0.0 mm 5.00 W/m2
02:55 8.1 °C 7.2 °C 1023.2 hPa Calm   1.6 km/h 94% 0.0 mm 7.00 W/m2
03:00 8.1 °C 7.2 °C 1023.2 hPa Calm     94% 0.0 mm 9.00 W/m2
03:05 8.2 °C 7.3 °C 1023.2 hPa Calm     94% 0.0 mm 12.00 W/m2
03:10 8.1 °C 7.2 °C 1023.2 hPa Calm     94% 0.0 mm 16.00 W/m2
03:15 8.0 °C 6.9 °C 1023.6 hPa Calm     93% 0.0 mm 16.00 W/m2
03:20 8.1 °C 7.2 °C 1023.6 hPa Calm     94% 0.0 mm 18.00 W/m2
03:25 8.2 °C 7.3 °C 1023.6 hPa Calm     94% 0.0 mm 21.00 W/m2
03:30 8.1 °C 7.2 °C 1023.6 hPa Calm     94% 0.0 mm 21.00 W/m2
03:35 8.2 °C 7.3 °C 1023.6 hPa Calm     94% 0.0 mm 21.00 W/m2
03:40 8.3 °C 7.4 °C 1023.6 hPa Calm     94% 0.0 mm 25.00 W/m2
03:45 8.5 °C 7.6 °C 1023.6 hPa Calm     94% 0.0 mm 26.00 W/m2
03:50 8.5 °C 7.6 °C 1023.9 hPa Calm     94% 0.0 mm 26.00 W/m2
03:55 8.6 °C 7.7 °C 1023.9 hPa NNW 1.6 km/h 1.6 km/h 94% 0.0 mm 28.00 W/m2
04:00 8.6 °C 7.7 °C 1023.9 hPa Calm     94% 0.0 mm 30.00 W/m2
04:05 8.8 °C 7.9 °C 1023.9 hPa Calm     94% 0.0 mm 28.00 W/m2
04:10 8.8 °C 7.9 °C 1023.9 hPa Calm     94% 0.0 mm 35.00 W/m2
04:15 8.8 °C 7.9 °C 1023.9 hPa Calm     94% 0.0 mm 40.00 W/m2
04:20 8.7 °C 7.8 °C 1023.9 hPa Calm     94% 0.0 mm 44.00 W/m2
04:25 8.8 °C 7.9 °C 1023.9 hPa Calm     94% 0.0 mm 53.00 W/m2
04:30 8.8 °C 7.9 °C 1023.9 hPa Calm     94% 0.0 mm 62.00 W/m2
04:35 8.9 °C 8.0 °C 1023.9 hPa Calm     94% 0.0 mm 65.00 W/m2
04:40 9.2 °C 8.3 °C 1024.3 hPa Calm     94% 0.0 mm 77.00 W/m2
04:45 9.3 °C 8.4 °C 1024.3 hPa Calm     94% 0.0 mm 84.00 W/m2
04:50 9.6 °C 8.7 °C 1023.9 hPa Calm     94% 0.0 mm 100.00 W/m2
04:55 9.7 °C 8.8 °C 1023.9 hPa Calm     94% 0.0 mm 118.00 W/m2
05:00 9.7 °C 8.8 °C 1023.9 hPa Calm     94% 0.0 mm 144.00 W/m2
05:05 9.9 °C 8.8 °C 1023.9 hPa Calm     93% 0.0 mm 214.00 W/m2
05:10 10.4 °C 9.2 °C 1023.9 hPa Calm     92% 0.0 mm 195.00 W/m2
05:15 11.0 °C 9.4 °C 1023.9 hPa Calm     90% 0.0 mm 200.00 W/m2
05:20 10.9 °C 8.8 °C 1023.9 hPa Calm   1.6 km/h 87% 0.0 mm 214.00 W/m2
05:25 11.2 °C 8.8 °C 1023.9 hPa Calm     85% 0.0 mm 223.00 W/m2
05:30 11.7 °C 9.1 °C 1023.9 hPa Calm     84% 0.0 mm 236.00 W/m2
05:35 11.5 °C 8.5 °C 1023.6 hPa NNW 1.4 km/h 1.6 km/h 82% 0.0 mm 248.00 W/m2
05:40 12.1 °C 9.3 °C 1023.9 hPa Calm   1.6 km/h 83% 0.0 mm 262.00 W/m2
05:45 12.4 °C 9.0 °C 1023.6 hPa NW 8.0 km/h 8.0 km/h 80% 0.0 mm 272.00 W/m2
05:50 12.0 °C 8.7 °C 1023.6 hPa WNW 1.4 km/h 3.2 km/h 80% 0.0 mm 285.00 W/m2
05:55 12.1 °C 8.6 °C 1023.9 hPa Calm   1.6 km/h 79% 0.0 mm 276.00 W/m2
06:00 12.7 °C 8.8 °C 1023.9 hPa WNW 1.4 km/h 6.4 km/h 77% 0.0 mm 274.00 W/m2
06:05 12.6 °C 8.7 °C 1023.9 hPa Calm   3.2 km/h 77% 0.0 mm 309.00 W/m2
06:10 12.7 °C 8.8 °C 1023.6 hPa Calm     77% 0.0 mm 320.00 W/m2
06:15 12.8 °C 8.7 °C 1023.6 hPa Calm   1.6 km/h 76% 0.0 mm 332.00 W/m2
06:20 13.4 °C 9.1 °C 1023.6 hPa Calm   3.2 km/h 75% 0.0 mm 343.00 W/m2
06:25 14.1 °C 9.5 °C 1023.6 hPa Calm     74% 0.0 mm 350.00 W/m2
06:30 13.3 °C 8.6 °C 1023.2 hPa Calm   8.0 km/h 73% 0.0 mm 359.00 W/m2
06:35 13.6 °C 8.4 °C 1023.6 hPa Calm   1.6 km/h 71% 0.0 mm 367.00 W/m2
06:40 13.8 °C 8.2 °C 1023.6 hPa West 3.2 km/h 8.0 km/h 69% 0.0 mm 373.00 W/m2
06:45 13.5 °C 7.7 °C 1023.6 hPa SW 7.9 km/h 12.9 km/h 68% 0.0 mm 380.00 W/m2
06:50 13.5 °C 7.9 °C 1023.6 hPa SW 4.7 km/h 6.4 km/h 69% 0.0 mm 388.00 W/m2
06:55 13.9 °C 8.3 °C 1023.6 hPa SW 11.3 km/h 11.3 km/h 69% 0.0 mm 390.00 W/m2
07:00 14.2 °C 8.2 °C 1023.6 hPa SW 1.4 km/h 6.4 km/h 67% 0.0 mm 401.00 W/m2
07:05 14.6 °C 8.1 °C 1023.6 hPa SW 6.4 km/h 9.7 km/h 65% 0.0 mm 410.00 W/m2
07:10 14.3 °C 8.0 °C 1023.9 hPa SW 6.4 km/h 16.1 km/h 66% 0.0 mm 323.00 W/m2
07:15 14.5 °C 8.4 °C 1023.6 hPa SW 6.4 km/h 14.5 km/h 67% 0.0 mm 422.00 W/m2
07:20 14.5 °C 8.2 °C 1023.6 hPa WSW 6.4 km/h 17.7 km/h 66% 0.0 mm 422.00 W/m2
07:25 14.4 °C 8.1 °C 1023.6 hPa West 7.9 km/h 14.5 km/h 66% 0.0 mm 422.00 W/m2
07:30 14.4 °C 8.6 °C 1023.6 hPa WSW 3.2 km/h 11.3 km/h 68% 0.0 mm 424.00 W/m2
07:35 14.7 °C 8.9 °C 1023.6 hPa SSW 4.7 km/h 11.3 km/h 68% 0.0 mm 432.00 W/m2
07:40 14.7 °C 8.4 °C 1023.6 hPa West 6.4 km/h 11.3 km/h 66% 0.0 mm 436.00 W/m2
07:45 14.6 °C 8.3 °C 1023.6 hPa West 17.7 km/h 17.7 km/h 66% 0.0 mm 438.00 W/m2
07:50 14.8 °C 9.0 °C 1023.6 hPa SSW 9.7 km/h 11.3 km/h 68% 0.0 mm 445.00 W/m2
07:55 15.5 °C 9.6 °C 1023.6 hPa SSW 3.2 km/h 12.9 km/h 68% 0.0 mm 450.00 W/m2
08:00 14.7 °C 8.6 °C 1023.6 hPa SSW 1.4 km/h 16.1 km/h 67% 0.0 mm 225.00 W/m2
08:05 14.5 °C 8.4 °C 1023.6 hPa SSW 11.1 km/h 14.5 km/h 67% 0.0 mm 216.00 W/m2
08:10 14.4 °C 8.6 °C 1023.6 hPa SSW 3.2 km/h 8.0 km/h 68% 0.0 mm 272.00 W/m2
08:15 14.4 °C 8.8 °C 1023.2 hPa Calm   9.7 km/h 69% 0.0 mm 339.00 W/m2
08:20 14.7 °C 9.1 °C 1023.2 hPa WSW 7.9 km/h 8.0 km/h 69% 0.0 mm 555.00 W/m2
08:25 14.8 °C 9.0 °C 1023.2 hPa SW 3.2 km/h 12.9 km/h 68% 0.0 mm 555.00 W/m2
08:30 14.8 °C 9.0 °C 1023.2 hPa West 6.4 km/h 11.3 km/h 68% 0.0 mm 452.00 W/m2
08:35 14.8 °C 8.7 °C 1022.9 hPa West 4.7 km/h 9.7 km/h 67% 0.0 mm 431.00 W/m2
08:40 14.8 °C 8.5 °C 1022.9 hPa SW 7.9 km/h 12.9 km/h 66% 0.0 mm 427.00 W/m2
08:45 14.8 °C 8.7 °C 1022.9 hPa WSW 4.7 km/h 9.7 km/h 67% 0.0 mm 390.00 W/m2
08:50 14.8 °C 8.3 °C 1022.9 hPa SW 1.4 km/h 12.9 km/h 65% 0.0 mm 452.00 W/m2
08:55 14.7 °C 8.4 °C 1022.9 hPa West 7.9 km/h 11.3 km/h 66% 0.0 mm 186.00 W/m2
09:00 14.6 °C 8.3 °C 1022.6 hPa SW 3.2 km/h 11.3 km/h 66% 0.0 mm 438.00 W/m2
09:05 14.9 °C 8.6 °C 1022.6 hPa SW 6.4 km/h 9.7 km/h 66% 0.0 mm 411.00 W/m2
09:10 15.0 °C 8.5 °C 1022.6 hPa WSW 3.2 km/h 11.3 km/h 65% 0.0 mm 408.00 W/m2
09:15 15.4 °C 8.6 °C 1022.6 hPa SW 9.7 km/h 9.7 km/h 64% 0.0 mm 406.00 W/m2
09:20 15.4 °C 8.9 °C 1022.6 hPa WSW 4.7 km/h 9.7 km/h 65% 0.0 mm 403.00 W/m2
09:25 15.4 °C 8.4 °C 1022.6 hPa SW 6.4 km/h 8.0 km/h 63% 0.0 mm 396.00 W/m2
09:30 15.4 °C 8.2 °C 1022.6 hPa SW 14.5 km/h 14.5 km/h 62% 0.0 mm 390.00 W/m2
09:35 15.3 °C 8.3 °C 1022.6 hPa WSW 3.2 km/h 9.7 km/h 63% 0.0 mm 388.00 W/m2
09:40 15.6 °C 8.3 °C 1022.2 hPa SW 7.9 km/h 9.7 km/h 62% 0.0 mm 232.00 W/m2
09:45 15.3 °C 8.3 °C 1022.6 hPa WSW 4.7 km/h 9.7 km/h 63% 0.0 mm 128.00 W/m2
09:50 14.8 °C 7.8 °C 1022.2 hPa West 1.4 km/h 14.5 km/h 63% 0.0 mm 151.00 W/m2
09:55 14.5 °C 8.0 °C 1022.2 hPa WSW 13.0 km/h 12.9 km/h 65% 0.0 mm 139.00 W/m2
10:05 14.5 °C 8.7 °C 1022.2 hPa West 1.4 km/h 6.4 km/h 68% 0.0 mm 162.00 W/m2
10:10 14.4 °C 8.6 °C 1022.2 hPa Calm   8.0 km/h 68% 0.0 mm 151.00 W/m2
10:15 14.3 °C 8.7 °C 1022.2 hPa SW 12.9 km/h 12.9 km/h 69% 0.0 mm 155.00 W/m2
10:20 14.2 °C 8.8 °C 1022.2 hPa West 6.4 km/h 11.3 km/h 70% 0.0 mm 134.00 W/m2
10:25 14.2 °C 8.8 °C 1022.2 hPa West 6.4 km/h 6.4 km/h 70% 0.0 mm 123.00 W/m2
10:30 14.2 °C 8.8 °C 1022.2 hPa West 9.7 km/h 11.3 km/h 70% 0.0 mm 123.00 W/m2
10:35 14.1 °C 8.5 °C 1022.2 hPa SSW 1.4 km/h 11.3 km/h 69% 0.0 mm 105.00 W/m2
10:40 13.9 °C 8.1 °C 1022.2 hPa SW 1.4 km/h 12.9 km/h 68% 0.0 mm 93.00 W/m2
10:45 13.9 °C 8.1 °C 1022.2 hPa SW 4.7 km/h 12.9 km/h 68% 0.0 mm 90.00 W/m2
10:50 13.9 °C 8.1 °C 1021.9 hPa WSW 3.2 km/h 9.7 km/h 68% 0.0 mm 97.00 W/m2
10:55 13.9 °C 8.3 °C 1021.9 hPa WSW 3.2 km/h 6.4 km/h 69% 0.0 mm 84.00 W/m2
11:00 13.8 °C 8.0 °C 1021.9 hPa WSW 4.7 km/h 9.7 km/h 68% 0.0 mm 83.00 W/m2
11:05 13.8 °C 8.0 °C 1021.9 hPa WSW 3.2 km/h 6.4 km/h 68% 0.0 mm 72.00 W/m2
11:10 13.8 °C 8.2 °C 1021.9 hPa WSW 4.7 km/h 6.4 km/h 69% 0.0 mm 63.00 W/m2
11:15 13.7 °C 8.1 °C 1021.9 hPa Calm   6.4 km/h 69% 0.0 mm 51.00 W/m2
11:20 13.8 °C 8.4 °C 1021.9 hPa WSW 1.4 km/h 4.8 km/h 70% 0.0 mm 47.00 W/m2
11:25 13.8 °C 8.4 °C 1021.9 hPa Calm   4.8 km/h 70% 0.0 mm 44.00 W/m2
11:30 13.7 °C 8.5 °C 1021.9 hPa Calm   1.6 km/h 71% 0.0 mm 46.00 W/m2
11:35 13.8 °C 8.8 °C 1021.9 hPa Calm   4.8 km/h 72% 0.0 mm 40.00 W/m2
11:40 13.8 °C 8.8 °C 1021.9 hPa Calm     72% 0.0 mm 42.00 W/m2
11:45 13.8 °C 8.8 °C 1021.9 hPa Calm     72% 0.0 mm 51.00 W/m2
11:50 13.9 °C 8.9 °C 1021.6 hPa WSW 4.8 km/h 4.8 km/h 72% 0.0 mm 51.00 W/m2
11:55 13.7 °C 8.7 °C 1021.6 hPa Calm   3.2 km/h 72% 0.0 mm 69.00 W/m2
12:00 13.7 °C 8.9 °C 1021.6 hPa Calm     73% 0.0 mm 63.00 W/m2
12:05 13.8 °C 9.0 °C 1021.6 hPa WSW 1.4 km/h 3.2 km/h 73% 0.0 mm 62.00 W/m2
12:10 13.9 °C 9.1 °C 1021.6 hPa Calm     73% 0.0 mm 74.00 W/m2
12:15 14.1 °C 9.3 °C 1021.2 hPa WSW 1.4 km/h 3.2 km/h 73% 0.0 mm 62.00 W/m2
12:20 14.0 °C 9.2 °C 1021.2 hPa WSW 4.7 km/h 4.8 km/h 73% 0.0 mm 63.00 W/m2
12:25 13.9 °C 9.1 °C 1021.6 hPa Calm     73% 0.0 mm 49.00 W/m2
12:30 13.8 °C 8.8 °C 1021.6 hPa Calm   3.2 km/h 72% 0.0 mm 37.00 W/m2
12:35 13.8 °C 9.0 °C 1021.2 hPa Calm   1.6 km/h 73% 0.0 mm 30.00 W/m2
12:40 13.9 °C 9.1 °C 1021.6 hPa Calm   1.6 km/h 73% 0.0 mm 25.00 W/m2
12:45 13.8 °C 9.0 °C 1021.6 hPa Calm     73% 0.0 mm 19.00 W/m2
12:50 13.6 °C 8.9 °C 1021.6 hPa Calm   3.2 km/h 73% 0.0 mm 18.00 W/m2
12:55 13.6 °C 8.9 °C 1021.6 hPa Calm   1.6 km/h 73% 0.0 mm 7.00 W/m2
13:00 13.6 °C 9.1 °C 1021.6 hPa Calm     74% 0.0 mm 5.00 W/m2
13:05 13.7 °C 9.1 °C 1021.6 hPa Calm     74% 0.0 mm 0.00 W/m2
13:10 13.6 °C 9.3 °C 1021.6 hPa Calm     75% 0.0 mm 0.00 W/m2
13:15 13.4 °C 9.1 °C 1021.6 hPa Calm     75% 0.0 mm 0.00 W/m2
13:20 13.3 °C 9.0 °C 1021.2 hPa Calm     75% 0.0 mm 0.00 W/m2
13:25 13.1 °C 8.8 °C 1021.2 hPa Calm     75% 0.0 mm 0.00 W/m2
13:30 13.0 °C 8.9 °C 1021.2 hPa Calm     76% 0.0 mm 0.00 W/m2
13:35 12.9 °C 8.8 °C 1021.6 hPa Calm     76% 0.0 mm 0.00 W/m2
13:40 12.8 °C 8.7 °C 1021.6 hPa Calm     76% 0.0 mm 0.00 W/m2
13:45 12.7 °C 8.6 °C 1021.6 hPa Calm     76% 0.0 mm 0.00 W/m2
13:50 12.7 °C 8.8 °C 1021.6 hPa Calm     77% 0.0 mm 0.00 W/m2
13:55 12.6 °C 8.7 °C 1021.6 hPa Calm     77% 0.0 mm 0.00 W/m2
14:00 12.5 °C 8.6 °C 1021.6 hPa Calm     77% 0.0 mm 0.00 W/m2
14:05 12.4 °C 8.5 °C 1021.6 hPa Calm     77% 0.0 mm 0.00 W/m2
14:10 12.2 °C 8.5 °C 1021.2 hPa Calm     78% 0.0 mm 0.00 W/m2
14:15 11.9 °C 8.4 °C 1021.2 hPa Calm     79% 0.0 mm 0.00 W/m2
14:20 11.7 °C 8.2 °C 1021.2 hPa Calm     79% 0.0 mm 0.00 W/m2
14:25 11.6 °C 8.3 °C 1021.2 hPa Calm     80% 0.0 mm 0.00 W/m2
14:30 11.4 °C 8.3 °C 1021.2 hPa Calm     81% 0.0 mm 0.00 W/m2
14:35 11.3 °C 8.2 °C 1021.2 hPa Calm     81% 0.0 mm 0.00 W/m2
14:40 11.2 °C 8.2 °C 1021.2 hPa Calm     82% 0.0 mm 0.00 W/m2
14:45 11.0 °C 8.0 °C 1021.2 hPa Calm     82% 0.0 mm 0.00 W/m2
14:50 10.8 °C 8.0 °C 1021.2 hPa Calm     83% 0.0 mm 0.00 W/m2
14:55 10.6 °C 7.8 °C 1021.2 hPa Calm     83% 0.0 mm 0.00 W/m2
15:00 10.6 °C 8.0 °C 1021.2 hPa Calm     84% 0.0 mm 0.00 W/m2
15:05 10.4 °C 7.8 °C 1021.2 hPa Calm     84% 0.0 mm 0.00 W/m2
15:10 10.4 °C 7.8 °C 1021.2 hPa Calm     84% 0.0 mm 0.00 W/m2
15:15 10.4 °C 8.0 °C 1021.2 hPa Calm     85% 0.0 mm 0.00 W/m2
15:20 10.3 °C 7.9 °C 1021.2 hPa Calm     85% 0.0 mm 0.00 W/m2
15:25 10.3 °C 7.9 °C 1020.9 hPa Calm     85% 0.0 mm 0.00 W/m2
15:30 10.2 °C 7.8 °C 1020.9 hPa Calm     85% 0.0 mm 0.00 W/m2
15:35 10.1 °C 7.9 °C 1020.9 hPa Calm     86% 0.0 mm 0.00 W/m2
15:40 9.9 °C 7.7 °C 1020.9 hPa Calm     86% 0.0 mm 0.00 W/m2
15:54 9.7 °C 7.6 °C 1020.9 hPa Calm     87% 0.0 mm 0.00 W/m2
15:55 9.6 °C 7.5 °C 1020.9 hPa Calm     87% 0.0 mm 0.00 W/m2
16:00 9.6 °C 7.5 °C 1020.9 hPa Calm     87% 0.0 mm 0.00 W/m2
16:05 9.5 °C 7.4 °C 1020.9 hPa Calm     87% 0.0 mm 0.00 W/m2
16:10 9.5 °C 7.4 °C 1020.9 hPa Calm     87% 0.0 mm 0.00 W/m2
16:15 9.3 °C 7.2 °C 1020.9 hPa Calm     87% 0.0 mm 0.00 W/m2
16:20 9.2 °C 7.1 °C 1020.9 hPa Calm     87% 0.0 mm 0.00 W/m2
16:25 9.1 °C 7.1 °C 1020.9 hPa Calm     87% 0.0 mm 0.00 W/m2
16:30 8.9 °C 7.0 °C 1020.9 hPa Calm   1.6 km/h 88% 0.0 mm 0.00 W/m2
16:35 8.9 °C 7.0 °C 1020.9 hPa Calm   1.6 km/h 88% 0.0 mm 0.00 W/m2
16:40 8.7 °C 6.8 °C 1020.9 hPa WSW 1.4 km/h 1.6 km/h 88% 0.0 mm 0.00 W/m2
16:45 8.6 °C 6.7 °C 1020.9 hPa Calm     88% 0.0 mm 0.00 W/m2
16:50 8.6 °C 6.9 °C 1020.9 hPa Calm     89% 0.0 mm 0.00 W/m2
16:55 8.6 °C 6.9 °C 1021.2 hPa Calm     89% 0.0 mm 0.00 W/m2
17:00 8.6 °C 6.9 °C 1021.2 hPa Calm     89% 0.0 mm 0.00 W/m2
17:05 8.5 °C 6.8 °C 1021.2 hPa Calm     89% 0.0 mm 0.00 W/m2
17:10 8.5 °C 6.8 °C 1021.2 hPa Calm     89% 0.0 mm 0.00 W/m2
17:15 8.4 °C 6.7 °C 1021.2 hPa Calm   1.6 km/h 89% 0.0 mm 0.00 W/m2
17:20 8.3 °C 6.6 °C 1020.9 hPa Calm   1.6 km/h 89% 0.0 mm 0.00 W/m2
17:25 8.2 °C 6.5 °C 1020.9 hPa Calm     89% 0.0 mm 0.00 W/m2
17:30 8.2 °C 6.7 °C 1020.9 hPa Calm     90% 0.0 mm 0.00 W/m2
17:35 8.2 °C 6.7 °C 1020.9 hPa Calm     90% 0.0 mm 0.00 W/m2
17:40 8.1 °C 6.6 °C 1020.9 hPa Calm     90% 0.0 mm 0.00 W/m2
17:45 7.9 °C 6.4 °C 1020.9 hPa Calm     90% 0.0 mm 0.00 W/m2
17:50 7.8 °C 6.3 °C 1020.9 hPa Calm     90% 0.0 mm 0.00 W/m2
17:55 7.8 °C 6.3 °C 1020.9 hPa Calm     90% 0.0 mm 0.00 W/m2
18:00 7.8 °C 6.3 °C 1020.9 hPa Calm     90% 0.0 mm 0.00 W/m2
18:05 7.8 °C 6.3 °C 1020.9 hPa Calm     90% 0.0 mm 0.00 W/m2
18:10 7.7 °C 6.2 °C 1020.9 hPa Calm     90% 0.0 mm 0.00 W/m2
18:15 7.6 °C 6.1 °C 1020.5 hPa Calm     90% 0.0 mm 0.00 W/m2
18:20 7.6 °C 6.1 °C 1020.5 hPa Calm     90% 0.0 mm 0.00 W/m2
18:25 7.5 °C 6.1 °C 1020.5 hPa Calm     91% 0.0 mm 0.00 W/m2
18:30 7.4 °C 6.0 °C 1020.5 hPa Calm     91% 0.0 mm 0.00 W/m2
18:35 7.4 °C 6.0 °C 1020.5 hPa Calm     91% 0.0 mm 0.00 W/m2
18:40 7.3 °C 5.9 °C 1020.5 hPa Calm     91% 0.0 mm 0.00 W/m2
18:45 7.3 °C 5.9 °C 1020.5 hPa Calm     91% 0.0 mm 0.00 W/m2
18:50 7.1 °C 5.7 °C 1020.5 hPa Calm     91% 0.0 mm 0.00 W/m2
18:55 7.1 °C 5.7 °C 1020.5 hPa Calm     91% 0.0 mm 0.00 W/m2
19:00 7.1 °C 5.7 °C 1020.5 hPa Calm     91% 0.0 mm 0.00 W/m2
19:05 6.9 °C 5.5 °C 1020.5 hPa Calm     91% 0.0 mm 0.00 W/m2
19:10 6.8 °C 5.4 °C 1020.5 hPa Calm     91% 0.0 mm 0.00 W/m2
19:15 6.9 °C 5.5 °C 1020.5 hPa Calm     91% 0.0 mm 0.00 W/m2
19:20 6.8 °C 5.4 °C 1020.2 hPa Calm     91% 0.0 mm 0.00 W/m2
19:25 6.7 °C 5.3 °C 1020.2 hPa Calm     91% 0.0 mm 0.00 W/m2
19:30 6.6 °C 5.2 °C 1020.2 hPa Calm     91% 0.0 mm 0.00 W/m2
19:35 6.6 °C 5.2 °C 1020.2 hPa Calm     91% 0.0 mm 0.00 W/m2
19:40 6.6 °C 5.2 °C 1020.2 hPa Calm     91% 0.0 mm 0.00 W/m2
19:45 6.5 °C 5.1 °C 1019.9 hPa Calm     91% 0.0 mm 0.00 W/m2
19:50 6.5 °C 5.3 °C 1019.9 hPa Calm     92% 0.0 mm 0.00 W/m2
19:55 6.4 °C 5.2 °C 1019.9 hPa Calm     92% 0.0 mm 0.00 W/m2
20:00 6.3 °C 4.9 °C 1019.9 hPa Calm     91% 0.0 mm 0.00 W/m2
20:05 6.3 °C 4.9 °C 1019.9 hPa Calm     91% 0.0 mm 0.00 W/m2
20:10 6.3 °C 5.1 °C 1019.5 hPa Calm     92% 0.0 mm 0.00 W/m2
20:15 6.2 °C 5.0 °C 1019.5 hPa Calm     92% 0.0 mm 0.00 W/m2
20:20 6.1 °C 4.9 °C 1019.5 hPa Calm     92% 0.0 mm 0.00 W/m2
20:25 6.1 °C 4.9 °C 1019.5 hPa Calm     92% 0.0 mm 0.00 W/m2
20:30 6.1 °C 4.9 °C 1019.5 hPa Calm     92% 0.0 mm 0.00 W/m2
20:35 6.1 °C 4.9 °C 1019.5 hPa Calm     92% 0.0 mm 0.00 W/m2
20:40 6.0 °C 4.8 °C 1019.5 hPa Calm     92% 0.0 mm 0.00 W/m2
20:45 6.0 °C 4.8 °C 1019.2 hPa Calm     92% 0.0 mm 0.00 W/m2
20:50 5.9 °C 4.7 °C 1019.2 hPa Calm     92% 0.0 mm 0.00 W/m2
20:55 5.9 °C 4.7 °C 1019.2 hPa Calm     92% 0.0 mm 0.00 W/m2
21:00 5.8 °C 4.6 °C 1019.2 hPa Calm     92% 0.0 mm 0.00 W/m2
21:05 5.8 °C 4.6 °C 1019.2 hPa Calm     92% 0.0 mm 0.00 W/m2
21:10 5.7 °C 4.5 °C 1019.2 hPa Calm   1.6 km/h 92% 0.0 mm 0.00 W/m2
21:15 5.7 °C 4.5 °C 1019.2 hPa Calm     92% 0.0 mm 0.00 W/m2
21:20 5.6 °C 4.4 °C 1018.8 hPa Calm     92% 0.0 mm 0.00 W/m2
21:25 5.6 °C 4.4 °C 1018.8 hPa Calm     92% 0.0 mm 0.00 W/m2
21:30 5.6 °C 4.4 °C 1018.8 hPa Calm     92% 0.0 mm 0.00 W/m2
21:35 5.6 °C 4.4 °C 1018.8 hPa Calm     92% 0.0 mm 0.00 W/m2
21:40 5.6 °C 4.4 °C 1018.8 hPa Calm     92% 0.0 mm 0.00 W/m2
21:45 5.6 °C 4.4 °C 1018.8 hPa Calm     92% 0.0 mm 0.00 W/m2
21:50 5.5 °C 4.5 °C 1018.8 hPa Calm     93% 0.0 mm 0.00 W/m2
21:55 5.5 °C 4.5 °C 1018.8 hPa Calm     93% 0.0 mm 0.00 W/m2
22:00 5.4 °C 4.2 °C 1018.8 hPa Calm     92% 0.0 mm 0.00 W/m2
22:05 5.3 °C 4.1 °C 1018.8 hPa Calm     92% 0.0 mm 0.00 W/m2
22:10 5.2 °C 4.2 °C 1018.8 hPa Calm     93% 0.0 mm 0.00 W/m2
22:15 5.2 °C 4.2 °C 1018.8 hPa Calm     93% 0.0 mm 0.00 W/m2
22:20 5.2 °C 4.2 °C 1018.5 hPa Calm     93% 0.0 mm 0.00 W/m2
22:25 5.2 °C 4.2 °C 1018.5 hPa Calm     93% 0.0 mm 0.00 W/m2
22:30 5.3 °C 4.3 °C 1018.2 hPa Calm     93% 0.0 mm 0.00 W/m2
22:35 5.2 °C 4.2 °C 1018.2 hPa Calm     93% 0.0 mm 0.00 W/m2
22:40 5.2 °C 4.2 °C 1018.2 hPa Calm     93% 0.0 mm 0.00 W/m2
22:45 5.3 °C 4.3 °C 1018.2 hPa Calm     93% 0.0 mm 0.00 W/m2
22:50 5.3 °C 4.3 °C 1018.2 hPa Calm     93% 0.0 mm 0.00 W/m2
22:55 5.3 °C 4.3 °C 1017.8 hPa Calm     93% 0.0 mm 0.00 W/m2
23:00 5.3 °C 4.3 °C 1017.8 hPa Calm     93% 0.0 mm 0.00 W/m2
23:05 5.3 °C 4.3 °C 1017.8 hPa Calm     93% 0.0 mm 0.00 W/m2
23:10 5.3 °C 4.3 °C 1017.8 hPa Calm     93% 0.0 mm 0.00 W/m2
23:15 5.4 °C 4.4 °C 1017.8 hPa Calm     93% 0.0 mm 0.00 W/m2
23:20 5.4 °C 4.4 °C 1017.5 hPa Calm     93% 0.0 mm 0.00 W/m2
23:25 5.3 °C 4.3 °C 1017.5 hPa Calm     93% 0.0 mm 0.00 W/m2
23:30 5.3 °C 4.3 °C 1017.5 hPa Calm     93% 0.0 mm 0.00 W/m2
23:35 5.3 °C 4.3 °C 1017.5 hPa Calm     93% 0.0 mm 0.00 W/m2
23:40 5.3 °C 4.3 °C 1017.5 hPa Calm     93% 0.0 mm 0.00 W/m2
23:45 5.3 °C 4.3 °C 1017.2 hPa Calm     93% 0.0 mm 0.00 W/m2
23:50 5.4 °C 4.5 °C 1017.2 hPa Calm   1.6 km/h 94% 0.0 mm 0.00 W/m2
23:55 5.3 °C 4.3 °C 1017.2 hPa Calm     93% 0.0 mm 0.00 W/m2